sensor_id;sensor_type;location;lat;lon;timestamp;P1;durP1;ratioP1;P2;durP2;ratioP2
1140;SDS011;559;48.628;8.924;2023-03-11T00:00:45;39.75;;;38.75;;
1140;SDS011;559;48.628;8.924;2023-03-11T00:03:13;40.08;;;38.97;;
1140;SDS011;559;48.628;8.924;2023-03-11T00:05:41;43.08;;;41.35;;
1140;SDS011;559;48.628;8.924;2023-03-11T00:08:10;39.47;;;38.47;;
1140;SDS011;559;48.628;8.924;2023-03-11T00:10:38;37.78;;;36.78;;
1140;SDS011;559;48.628;8.924;2023-03-11T00:13:07;37.63;;;36.70;;
1140;SDS011;559;48.628;8.924;2023-03-11T00:15:35;37.75;;;36.75;;
1140;SDS011;559;48.628;8.924;2023-03-11T00:18:03;42.40;;;41.25;;
1140;SDS011;559;48.628;8.924;2023-03-11T00:20:31;37.45;;;36.45;;
1140;SDS011;559;48.628;8.924;2023-03-11T00:22:59;39.58;;;38.53;;
1140;SDS011;559;48.628;8.924;2023-03-11T00:25:27;42.08;;;40.97;;
1140;SDS011;559;48.628;8.924;2023-03-11T00:27:54;44.35;;;43.15;;
1140;SDS011;559;48.628;8.924;2023-03-11T00:30:22;41.83;;;40.72;;
1140;SDS011;559;48.628;8.924;2023-03-11T00:32:49;44.90;;;43.70;;
1140;SDS011;559;48.628;8.924;2023-03-11T00:35:18;44.33;;;43.13;;
1140;SDS011;559;48.628;8.924;2023-03-11T00:37:46;45.88;;;44.47;;
1140;SDS011;559;48.628;8.924;2023-03-11T00:40:14;46.70;;;45.40;;
1140;SDS011;559;48.628;8.924;2023-03-11T00:42:42;46.05;;;44.85;;
1140;SDS011;559;48.628;8.924;2023-03-11T00:45:09;46.45;;;45.05;;
1140;SDS011;559;48.628;8.924;2023-03-11T00:47:36;49.03;;;47.72;;
1140;SDS011;559;48.628;8.924;2023-03-11T00:50:02;47.95;;;46.65;;
1140;SDS011;559;48.628;8.924;2023-03-11T00:52:30;47.03;;;45.63;;
1140;SDS011;559;48.628;8.924;2023-03-11T00:54:57;47.55;;;46.25;;
1140;SDS011;559;48.628;8.924;2023-03-11T00:57:24;48.65;;;47.35;;
1140;SDS011;559;48.628;8.924;2023-03-11T00:59:53;48.75;;;47.20;;
1140;SDS011;559;48.628;8.924;2023-03-11T01:02:19;45.53;;;44.28;;
1140;SDS011;559;48.628;8.924;2023-03-11T01:04:46;46.80;;;45.50;;
1140;SDS011;559;48.628;8.924;2023-03-11T01:07:13;48.88;;;47.58;;
1140;SDS011;559;48.628;8.924;2023-03-11T01:09:41;49.80;;;48.40;;
1140;SDS011;559;48.628;8.924;2023-03-11T01:12:07;53.85;;;52.25;;
1140;SDS011;559;48.628;8.924;2023-03-11T01:14:34;61.40;;;59.50;;
1140;SDS011;559;48.628;8.924;2023-03-11T01:17:00;59.53;;;57.60;;
1140;SDS011;559;48.628;8.924;2023-03-11T01:19:27;63.13;;;61.10;;
1140;SDS011;559;48.628;8.924;2023-03-11T01:21:53;67.00;;;64.60;;
1140;SDS011;559;48.628;8.924;2023-03-11T01:24:20;66.55;;;64.25;;
1140;SDS011;559;48.628;8.924;2023-03-11T01:26:47;66.97;;;64.68;;
1140;SDS011;559;48.628;8.924;2023-03-11T01:29:14;68.78;;;66.28;;
1140;SDS011;559;48.628;8.924;2023-03-11T01:31:40;65.72;;;63.33;;
1140;SDS011;559;48.628;8.924;2023-03-11T01:34:07;71.57;;;69.00;;
1140;SDS011;559;48.628;8.924;2023-03-11T01:36:33;67.78;;;65.38;;
1140;SDS011;559;48.628;8.924;2023-03-11T01:39:00;69.88;;;67.38;;
1140;SDS011;559;48.628;8.924;2023-03-11T01:41:26;68.35;;;66.05;;
1140;SDS011;559;48.628;8.924;2023-03-11T01:43:54;65.90;;;63.63;;
1140;SDS011;559;48.628;8.924;2023-03-11T01:46:22;63.30;;;61.20;;
1140;SDS011;559;48.628;8.924;2023-03-11T01:48:50;61.75;;;59.85;;
1140;SDS011;559;48.628;8.924;2023-03-11T01:51:18;57.38;;;55.60;;
1140;SDS011;559;48.628;8.924;2023-03-11T01:53:48;57.22;;;55.47;;
1140;SDS011;559;48.628;8.924;2023-03-11T01:56:15;56.70;;;55.10;;
1140;SDS011;559;48.628;8.924;2023-03-11T01:58:42;49.35;;;47.95;;
1140;SDS011;559;48.628;8.924;2023-03-11T02:01:11;47.72;;;46.35;;
1140;SDS011;559;48.628;8.924;2023-03-11T02:03:38;46.45;;;45.25;;
1140;SDS011;559;48.628;8.924;2023-03-11T02:06:07;43.33;;;42.13;;
1140;SDS011;559;48.628;8.924;2023-03-11T02:08:35;44.08;;;42.88;;
1140;SDS011;559;48.628;8.924;2023-03-11T02:11:02;45.33;;;44.13;;
1140;SDS011;559;48.628;8.924;2023-03-11T02:13:31;44.83;;;43.63;;
1140;SDS011;559;48.628;8.924;2023-03-11T02:15:59;46.75;;;45.38;;
1140;SDS011;559;48.628;8.924;2023-03-11T02:18:27;47.05;;;45.75;;
1140;SDS011;559;48.628;8.924;2023-03-11T02:20:56;47.70;;;46.35;;
1140;SDS011;559;48.628;8.924;2023-03-11T02:23:29;48.40;;;46.80;;
1140;SDS011;559;48.628;8.924;2023-03-11T02:26:00;47.55;;;46.25;;
1140;SDS011;559;48.628;8.924;2023-03-11T02:28:32;44.13;;;42.95;;
1140;SDS011;559;48.628;8.924;2023-03-11T02:31:00;43.30;;;42.20;;
1140;SDS011;559;48.628;8.924;2023-03-11T02:33:27;45.45;;;44.25;;
1140;SDS011;559;48.628;8.924;2023-03-11T02:35:56;44.90;;;43.70;;
1140;SDS011;559;48.628;8.924;2023-03-11T02:38:23;46.78;;;45.47;;
1140;SDS011;559;48.628;8.924;2023-03-11T02:40:50;48.58;;;47.13;;
1140;SDS011;559;48.628;8.924;2023-03-11T02:43:21;46.58;;;45.28;;
1140;SDS011;559;48.628;8.924;2023-03-11T02:45:51;44.17;;;43.08;;
1140;SDS011;559;48.628;8.924;2023-03-11T02:48:18;42.50;;;41.40;;
1140;SDS011;559;48.628;8.924;2023-03-11T02:50:45;42.58;;;41.38;;
1140;SDS011;559;48.628;8.924;2023-03-11T02:53:12;43.75;;;42.55;;
1140;SDS011;559;48.628;8.924;2023-03-11T02:55:39;46.50;;;45.13;;
1140;SDS011;559;48.628;8.924;2023-03-11T02:58:06;47.85;;;46.55;;
1140;SDS011;559;48.628;8.924;2023-03-11T03:00:32;50.25;;;48.92;;
1140;SDS011;559;48.628;8.924;2023-03-11T03:03:00;51.95;;;50.45;;
1140;SDS011;559;48.628;8.924;2023-03-11T03:05:26;49.00;;;47.70;;
1140;SDS011;559;48.628;8.924;2023-03-11T03:07:53;50.72;;;49.28;;
1140;SDS011;559;48.628;8.924;2023-03-11T03:10:20;52.92;;;51.42;;
1140;SDS011;559;48.628;8.924;2023-03-11T03:12:47;52.90;;;51.40;;
1140;SDS011;559;48.628;8.924;2023-03-11T03:15:13;48.67;;;47.17;;
1140;SDS011;559;48.628;8.924;2023-03-11T03:17:41;46.65;;;45.33;;
1140;SDS011;559;48.628;8.924;2023-03-11T03:20:09;33.67;;;32.67;;
1140;SDS011;559;48.628;8.924;2023-03-11T03:22:38;34.70;;;33.80;;
1140;SDS011;559;48.628;8.924;2023-03-11T03:25:05;33.58;;;32.67;;
1140;SDS011;559;48.628;8.924;2023-03-11T03:27:33;36.92;;;36.03;;
1140;SDS011;559;48.628;8.924;2023-03-11T03:29:59;28.65;;;27.88;;
1140;SDS011;559;48.628;8.924;2023-03-11T03:32:26;27.48;;;26.77;;
1140;SDS011;559;48.628;8.924;2023-03-11T03:34:53;29.88;;;29.02;;
1140;SDS011;559;48.628;8.924;2023-03-11T03:37:24;27.77;;;27.08;;
1140;SDS011;559;48.628;8.924;2023-03-11T03:39:51;28.42;;;27.73;;
1140;SDS011;559;48.628;8.924;2023-03-11T03:42:18;29.10;;;28.30;;
1140;SDS011;559;48.628;8.924;2023-03-11T03:44:45;26.27;;;25.58;;
1140;SDS011;559;48.628;8.924;2023-03-11T03:47:11;27.58;;;26.75;;
1140;SDS011;559;48.628;8.924;2023-03-11T03:49:38;26.58;;;25.92;;
1140;SDS011;559;48.628;8.924;2023-03-11T03:52:04;28.80;;;27.95;;
1140;SDS011;559;48.628;8.924;2023-03-11T03:54:32;27.23;;;26.52;;
1140;SDS011;559;48.628;8.924;2023-03-11T03:56:59;26.10;;;25.50;;
1140;SDS011;559;48.628;8.924;2023-03-11T03:59:25;26.17;;;25.33;;
1140;SDS011;559;48.628;8.924;2023-03-11T04:01:52;26.17;;;25.42;;
1140;SDS011;559;48.628;8.924;2023-03-11T04:04:18;25.35;;;24.75;;
1140;SDS011;559;48.628;8.924;2023-03-11T04:06:45;26.27;;;25.20;;
1140;SDS011;559;48.628;8.924;2023-03-11T04:09:11;26.10;;;25.40;;
1140;SDS011;559;48.628;8.924;2023-03-11T04:11:40;27.95;;;26.75;;
1140;SDS011;559;48.628;8.924;2023-03-11T04:14:06;30.35;;;29.45;;
1140;SDS011;559;48.628;8.924;2023-03-11T04:16:32;33.10;;;32.20;;
1140;SDS011;559;48.628;8.924;2023-03-11T04:18:59;37.85;;;36.75;;
1140;SDS011;559;48.628;8.924;2023-03-11T04:21:25;38.10;;;36.90;;
1140;SDS011;559;48.628;8.924;2023-03-11T04:23:52;38.58;;;36.70;;
1140;SDS011;559;48.628;8.924;2023-03-11T04:26:18;34.42;;;33.42;;
1140;SDS011;559;48.628;8.924;2023-03-11T04:28:46;34.38;;;33.38;;
1140;SDS011;559;48.628;8.924;2023-03-11T04:31:13;34.13;;;32.85;;
1140;SDS011;559;48.628;8.924;2023-03-11T04:33:40;34.08;;;33.17;;
1140;SDS011;559;48.628;8.924;2023-03-11T04:36:07;33.28;;;32.38;;
1140;SDS011;559;48.628;8.924;2023-03-11T04:38:34;34.03;;;33.20;;
1140;SDS011;559;48.628;8.924;2023-03-11T04:41:01;35.08;;;34.13;;
1140;SDS011;559;48.628;8.924;2023-03-11T04:43:28;39.45;;;38.45;;
1140;SDS011;559;48.628;8.924;2023-03-11T04:45:56;44.55;;;43.35;;
1140;SDS011;559;48.628;8.924;2023-03-11T04:48:22;47.08;;;45.72;;
1140;SDS011;559;48.628;8.924;2023-03-11T04:50:51;42.85;;;41.75;;
1140;SDS011;559;48.628;8.924;2023-03-11T04:53:17;45.05;;;43.75;;
1140;SDS011;559;48.628;8.924;2023-03-11T04:55:44;44.03;;;42.83;;
1140;SDS011;559;48.628;8.924;2023-03-11T04:58:11;44.83;;;43.45;;
1140;SDS011;559;48.628;8.924;2023-03-11T05:00:38;38.25;;;37.25;;
1140;SDS011;559;48.628;8.924;2023-03-11T05:03:06;38.75;;;37.75;;
1140;SDS011;559;48.628;8.924;2023-03-11T05:05:33;40.40;;;39.20;;
1140;SDS011;559;48.628;8.924;2023-03-11T05:07:59;39.00;;;37.72;;
1140;SDS011;559;48.628;8.924;2023-03-11T05:10:26;40.67;;;39.47;;
1140;SDS011;559;48.628;8.924;2023-03-11T05:12:52;39.05;;;37.75;;
1140;SDS011;559;48.628;8.924;2023-03-11T05:15:19;41.03;;;39.92;;
1140;SDS011;559;48.628;8.924;2023-03-11T05:17:46;40.88;;;39.65;;
1140;SDS011;559;48.628;8.924;2023-03-11T05:20:14;38.40;;;37.30;;
1140;SDS011;559;48.628;8.924;2023-03-11T05:22:40;37.10;;;36.00;;
1140;SDS011;559;48.628;8.924;2023-03-11T05:25:07;38.08;;;36.92;;
1140;SDS011;559;48.628;8.924;2023-03-11T05:27:34;40.17;;;38.88;;
1140;SDS011;559;48.628;8.924;2023-03-11T05:30:01;41.97;;;40.88;;
1140;SDS011;559;48.628;8.924;2023-03-11T05:32:27;39.78;;;38.67;;
1140;SDS011;559;48.628;8.924;2023-03-11T05:34:53;38.25;;;36.50;;
1140;SDS011;559;48.628;8.924;2023-03-11T05:37:21;42.53;;;41.33;;
1140;SDS011;559;48.628;8.924;2023-03-11T05:39:48;44.10;;;42.80;;
1140;SDS011;559;48.628;8.924;2023-03-11T05:42:14;44.47;;;43.17;;
1140;SDS011;559;48.628;8.924;2023-03-11T05:44:41;53.00;;;49.65;;
1140;SDS011;559;48.628;8.924;2023-03-11T05:47:07;50.03;;;48.50;;
1140;SDS011;559;48.628;8.924;2023-03-11T05:49:34;51.63;;;50.13;;
1140;SDS011;559;48.628;8.924;2023-03-11T05:52:00;50.40;;;48.70;;
1140;SDS011;559;48.628;8.924;2023-03-11T05:54:28;49.28;;;47.88;;
1140;SDS011;559;48.628;8.924;2023-03-11T05:56:55;50.72;;;49.33;;
1140;SDS011;559;48.628;8.924;2023-03-11T05:59:21;54.75;;;53.05;;
1140;SDS011;559;48.628;8.924;2023-03-11T06:01:48;54.97;;;53.28;;
1140;SDS011;559;48.628;8.924;2023-03-11T06:04:14;55.33;;;53.72;;
1140;SDS011;559;48.628;8.924;2023-03-11T06:06:41;53.25;;;51.25;;
1140;SDS011;559;48.628;8.924;2023-03-11T06:09:09;54.17;;;52.28;;
1140;SDS011;559;48.628;8.924;2023-03-11T06:11:38;51.85;;;50.10;;
1140;SDS011;559;48.628;8.924;2023-03-11T06:14:04;51.85;;;50.35;;
1140;SDS011;559;48.628;8.924;2023-03-11T06:16:31;55.28;;;53.35;;
1140;SDS011;559;48.628;8.924;2023-03-11T06:18:57;57.30;;;55.50;;
1140;SDS011;559;48.628;8.924;2023-03-11T06:21:24;55.95;;;54.05;;
1140;SDS011;559;48.628;8.924;2023-03-11T06:23:51;56.58;;;54.67;;
1140;SDS011;559;48.628;8.924;2023-03-11T06:26:19;62.90;;;60.42;;
1140;SDS011;559;48.628;8.924;2023-03-11T06:28:47;55.90;;;53.80;;
1140;SDS011;559;48.628;8.924;2023-03-11T06:31:15;53.13;;;51.15;;
1140;SDS011;559;48.628;8.924;2023-03-11T06:33:43;51.40;;;49.90;;
1140;SDS011;559;48.628;8.924;2023-03-11T06:36:11;52.15;;;50.55;;
1140;SDS011;559;48.628;8.924;2023-03-11T06:38:38;52.53;;;50.50;;
1140;SDS011;559;48.628;8.924;2023-03-11T06:41:05;50.92;;;49.42;;
1140;SDS011;559;48.628;8.924;2023-03-11T06:43:32;51.90;;;50.20;;
1140;SDS011;559;48.628;8.924;2023-03-11T06:46:01;55.42;;;53.63;;
1140;SDS011;559;48.628;8.924;2023-03-11T06:48:33;55.60;;;53.70;;
1140;SDS011;559;48.628;8.924;2023-03-11T06:51:00;54.05;;;51.80;;
1140;SDS011;559;48.628;8.924;2023-03-11T06:53:27;54.53;;;52.40;;
1140;SDS011;559;48.628;8.924;2023-03-11T06:55:57;47.55;;;45.92;;
1140;SDS011;559;48.628;8.924;2023-03-11T06:58:25;41.53;;;40.05;;
1140;SDS011;559;48.628;8.924;2023-03-11T07:00:51;36.33;;;35.22;;
1140;SDS011;559;48.628;8.924;2023-03-11T07:03:19;34.30;;;33.33;;
1140;SDS011;559;48.628;8.924;2023-03-11T07:05:48;31.17;;;29.88;;
1140;SDS011;559;48.628;8.924;2023-03-11T07:08:15;35.58;;;34.42;;
1140;SDS011;559;48.628;8.924;2023-03-11T07:10:42;32.30;;;31.50;;
1140;SDS011;559;48.628;8.924;2023-03-11T07:13:08;28.15;;;27.23;;
1140;SDS011;559;48.628;8.924;2023-03-11T07:15:35;27.77;;;26.98;;
1140;SDS011;559;48.628;8.924;2023-03-11T07:18:01;26.98;;;26.08;;
1140;SDS011;559;48.628;8.924;2023-03-11T07:20:29;27.75;;;26.95;;
1140;SDS011;559;48.628;8.924;2023-03-11T07:22:56;28.05;;;27.05;;
1140;SDS011;559;48.628;8.924;2023-03-11T07:25:22;31.27;;;30.48;;
1140;SDS011;559;48.628;8.924;2023-03-11T07:27:48;29.15;;;28.10;;
1140;SDS011;559;48.628;8.924;2023-03-11T07:30:15;31.90;;;30.90;;
1140;SDS011;559;48.628;8.924;2023-03-11T07:32:42;28.27;;;27.35;;
1140;SDS011;559;48.628;8.924;2023-03-11T07:35:08;29.40;;;28.67;;
1140;SDS011;559;48.628;8.924;2023-03-11T07:37:36;25.90;;;25.10;;
1140;SDS011;559;48.628;8.924;2023-03-11T07:40:03;28.08;;;27.38;;
1140;SDS011;559;48.628;8.924;2023-03-11T07:42:30;29.92;;;28.83;;
1140;SDS011;559;48.628;8.924;2023-03-11T07:44:57;27.08;;;26.20;;
1140;SDS011;559;48.628;8.924;2023-03-11T07:47:24;22.25;;;21.35;;
1140;SDS011;559;48.628;8.924;2023-03-11T07:49:50;18.50;;;18.00;;
1140;SDS011;559;48.628;8.924;2023-03-11T07:52:17;21.13;;;20.08;;
1140;SDS011;559;48.628;8.924;2023-03-11T07:54:45;16.60;;;16.17;;
1140;SDS011;559;48.628;8.924;2023-03-11T07:57:11;15.60;;;15.20;;
1140;SDS011;559;48.628;8.924;2023-03-11T07:59:41;16.02;;;15.50;;
1140;SDS011;559;48.628;8.924;2023-03-11T08:02:08;14.48;;;13.55;;
1140;SDS011;559;48.628;8.924;2023-03-11T08:04:34;14.30;;;13.90;;
1140;SDS011;559;48.628;8.924;2023-03-11T08:07:01;11.05;;;10.50;;
1140;SDS011;559;48.628;8.924;2023-03-11T08:09:28;13.15;;;12.10;;
1140;SDS011;559;48.628;8.924;2023-03-11T08:11:55;12.15;;;11.68;;
1140;SDS011;559;48.628;8.924;2023-03-11T08:14:22;11.25;;;10.65;;
1140;SDS011;559;48.628;8.924;2023-03-11T08:16:48;6.80;;;6.50;;
1140;SDS011;559;48.628;8.924;2023-03-11T08:19:15;4.72;;;4.63;;
1140;SDS011;559;48.628;8.924;2023-03-11T08:21:41;7.47;;;5.97;;
1140;SDS011;559;48.628;8.924;2023-03-11T08:24:08;5.68;;;5.38;;
1140;SDS011;559;48.628;8.924;2023-03-11T08:26:36;7.68;;;7.28;;
1140;SDS011;559;48.628;8.924;2023-03-11T08:29:03;9.25;;;8.85;;
1140;SDS011;559;48.628;8.924;2023-03-11T08:31:31;5.75;;;5.45;;
1140;SDS011;559;48.628;8.924;2023-03-11T08:33:59;6.38;;;5.97;;
1140;SDS011;559;48.628;8.924;2023-03-11T08:36:26;3.40;;;3.20;;
1140;SDS011;559;48.628;8.924;2023-03-11T08:38:53;4.13;;;4.00;;
1140;SDS011;559;48.628;8.924;2023-03-11T08:41:19;4.65;;;4.25;;
1140;SDS011;559;48.628;8.924;2023-03-11T08:43:46;5.03;;;3.97;;
1140;SDS011;559;48.628;8.924;2023-03-11T08:46:14;5.35;;;5.05;;
1140;SDS011;559;48.628;8.924;2023-03-11T08:48:44;3.88;;;3.60;;
1140;SDS011;559;48.628;8.924;2023-03-11T08:51:11;4.13;;;3.92;;
1140;SDS011;559;48.628;8.924;2023-03-11T08:53:37;4.40;;;3.85;;
1140;SDS011;559;48.628;8.924;2023-03-11T08:56:04;2.83;;;2.60;;
1140;SDS011;559;48.628;8.924;2023-03-11T08:58:31;2.08;;;1.98;;
1140;SDS011;559;48.628;8.924;2023-03-11T09:00:57;8.45;;;2.47;;
1140;SDS011;559;48.628;8.924;2023-03-11T09:03:25;4.57;;;3.67;;
1140;SDS011;559;48.628;8.924;2023-03-11T09:05:55;4.13;;;2.60;;
1140;SDS011;559;48.628;8.924;2023-03-11T09:08:22;2.22;;;1.83;;
1140;SDS011;559;48.628;8.924;2023-03-11T09:10:48;1.40;;;1.30;;
1140;SDS011;559;48.628;8.924;2023-03-11T09:13:15;3.10;;;1.75;;
1140;SDS011;559;48.628;8.924;2023-03-11T09:15:41;2.35;;;1.45;;
1140;SDS011;559;48.628;8.924;2023-03-11T09:18:09;2.30;;;1.40;;
1140;SDS011;559;48.628;8.924;2023-03-11T09:20:39;1.20;;;1.10;;
1140;SDS011;559;48.628;8.924;2023-03-11T09:23:05;2.50;;;1.58;;
1140;SDS011;559;48.628;8.924;2023-03-11T09:25:33;3.83;;;2.00;;
1140;SDS011;559;48.628;8.924;2023-03-11T09:27:59;2.47;;;1.77;;
1140;SDS011;559;48.628;8.924;2023-03-11T09:30:25;1.65;;;1.55;;
1140;SDS011;559;48.628;8.924;2023-03-11T09:32:52;3.58;;;1.65;;
1140;SDS011;559;48.628;8.924;2023-03-11T09:35:18;5.82;;;1.73;;
1140;SDS011;559;48.628;8.924;2023-03-11T09:37:46;2.38;;;2.17;;
1140;SDS011;559;48.628;8.924;2023-03-11T09:40:14;1.80;;;1.70;;
1140;SDS011;559;48.628;8.924;2023-03-11T09:42:43;3.75;;;1.92;;
1140;SDS011;559;48.628;8.924;2023-03-11T09:45:13;1.73;;;1.63;;
1140;SDS011;559;48.628;8.924;2023-03-11T09:47:47;1.80;;;1.60;;
1140;SDS011;559;48.628;8.924;2023-03-11T09:50:30;1.77;;;1.67;;
1140;SDS011;559;48.628;8.924;2023-03-11T09:53:05;4.50;;;1.25;;
1140;SDS011;559;48.628;8.924;2023-03-11T09:55:39;2.97;;;1.40;;
1140;SDS011;559;48.628;8.924;2023-03-11T09:58:12;1.27;;;1.10;;
1140;SDS011;559;48.628;8.924;2023-03-11T10:00:42;1.77;;;1.42;;
1140;SDS011;559;48.628;8.924;2023-03-11T10:03:24;2.55;;;0.93;;
1140;SDS011;559;48.628;8.924;2023-03-11T10:05:53;3.03;;;0.90;;
1140;SDS011;559;48.628;8.924;2023-03-11T10:08:26;7.65;;;1.38;;
1140;SDS011;559;48.628;8.924;2023-03-11T10:10:56;1.85;;;1.20;;
1140;SDS011;559;48.628;8.924;2023-03-11T10:13:28;1.00;;;0.90;;
1140;SDS011;559;48.628;8.924;2023-03-11T10:15:58;1.10;;;0.90;;
1140;SDS011;559;48.628;8.924;2023-03-11T10:21:22;4.20;;;1.27;;
1140;SDS011;559;48.628;8.924;2023-03-11T10:24:02;1.88;;;0.90;;
1140;SDS011;559;48.628;8.924;2023-03-11T10:26:40;2.50;;;1.40;;
1140;SDS011;559;48.628;8.924;2023-03-11T10:29:10;1.30;;;1.10;;
1140;SDS011;559;48.628;8.924;2023-03-11T10:31:41;2.10;;;0.95;;
1140;SDS011;559;48.628;8.924;2023-03-11T10:34:11;4.35;;;1.40;;
1140;SDS011;559;48.628;8.924;2023-03-11T10:36:41;1.92;;;0.82;;
1140;SDS011;559;48.628;8.924;2023-03-11T10:39:16;1.20;;;0.90;;
1140;SDS011;559;48.628;8.924;2023-03-11T10:41:45;1.77;;;0.80;;
1140;SDS011;559;48.628;8.924;2023-03-11T10:44:16;2.65;;;0.95;;
1140;SDS011;559;48.628;8.924;2023-03-11T10:46:44;1.10;;;0.95;;
1140;SDS011;559;48.628;8.924;2023-03-11T10:49:12;1.70;;;0.90;;
1140;SDS011;559;48.628;8.924;2023-03-11T10:51:40;2.35;;;1.10;;
1140;SDS011;559;48.628;8.924;2023-03-11T10:54:07;1.30;;;0.75;;
1140;SDS011;559;48.628;8.924;2023-03-11T10:56:35;0.80;;;0.77;;
1140;SDS011;559;48.628;8.924;2023-03-11T10:59:04;1.00;;;0.90;;
1140;SDS011;559;48.628;8.924;2023-03-11T11:01:35;2.35;;;1.08;;
1140;SDS011;559;48.628;8.924;2023-03-11T11:04:02;1.50;;;0.75;;
1140;SDS011;559;48.628;8.924;2023-03-11T11:06:29;2.50;;;1.52;;
1140;SDS011;559;48.628;8.924;2023-03-11T11:09:04;3.15;;;1.48;;
1140;SDS011;559;48.628;8.924;2023-03-11T11:11:31;4.90;;;1.45;;
1140;SDS011;559;48.628;8.924;2023-03-11T11:14:00;2.00;;;1.00;;
1140;SDS011;559;48.628;8.924;2023-03-11T11:16:27;1.77;;;0.90;;
1140;SDS011;559;48.628;8.924;2023-03-11T11:18:55;1.45;;;0.90;;
1140;SDS011;559;48.628;8.924;2023-03-11T11:21:28;2.25;;;1.30;;
1140;SDS011;559;48.628;8.924;2023-03-11T11:24:03;1.95;;;1.10;;
1140;SDS011;559;48.628;8.924;2023-03-11T11:26:41;1.25;;;1.15;;
1140;SDS011;559;48.628;8.924;2023-03-11T11:29:13;2.42;;;1.73;;
1140;SDS011;559;48.628;8.924;2023-03-11T11:31:40;1.17;;;0.88;;
1140;SDS011;559;48.628;8.924;2023-03-11T11:34:23;1.30;;;0.75;;
1140;SDS011;559;48.628;8.924;2023-03-11T11:36:54;3.72;;;0.70;;
1140;SDS011;559;48.628;8.924;2023-03-11T11:39:22;1.92;;;0.88;;
1140;SDS011;559;48.628;8.924;2023-03-11T11:41:50;2.33;;;0.70;;
1140;SDS011;559;48.628;8.924;2023-03-11T11:44:20;1.67;;;0.80;;
1140;SDS011;559;48.628;8.924;2023-03-11T11:46:48;1.67;;;1.13;;
1140;SDS011;559;48.628;8.924;2023-03-11T11:49:18;1.00;;;0.63;;
1140;SDS011;559;48.628;8.924;2023-03-11T11:51:47;1.35;;;1.05;;
1140;SDS011;559;48.628;8.924;2023-03-11T11:54:16;1.20;;;0.70;;
1140;SDS011;559;48.628;8.924;2023-03-11T11:56:45;3.17;;;1.25;;
1140;SDS011;559;48.628;8.924;2023-03-11T11:59:16;1.55;;;1.45;;
1140;SDS011;559;48.628;8.924;2023-03-11T12:01:47;1.00;;;0.85;;
1140;SDS011;559;48.628;8.924;2023-03-11T12:04:24;1.00;;;0.80;;
1140;SDS011;559;48.628;8.924;2023-03-11T12:06:59;1.45;;;1.20;;
1140;SDS011;559;48.628;8.924;2023-03-11T12:09:33;2.78;;;1.30;;
1140;SDS011;559;48.628;8.924;2023-03-11T12:12:04;1.00;;;0.90;;
1140;SDS011;559;48.628;8.924;2023-03-11T12:14:37;2.60;;;1.10;;
1140;SDS011;559;48.628;8.924;2023-03-11T12:17:09;1.23;;;0.75;;
1140;SDS011;559;48.628;8.924;2023-03-11T12:19:38;1.63;;;0.98;;
1140;SDS011;559;48.628;8.924;2023-03-11T12:22:16;0.80;;;0.70;;
1140;SDS011;559;48.628;8.924;2023-03-11T12:25:07;1.27;;;1.13;;
1140;SDS011;559;48.628;8.924;2023-03-11T12:27:48;0.80;;;0.80;;
1140;SDS011;559;48.628;8.924;2023-03-11T12:30:17;5.95;;;1.02;;
1140;SDS011;559;48.628;8.924;2023-03-11T12:32:49;1.23;;;1.05;;
1140;SDS011;559;48.628;8.924;2023-03-11T12:35:19;1.55;;;1.30;;
1140;SDS011;559;48.628;8.924;2023-03-11T12:37:54;2.35;;;2.10;;
1140;SDS011;559;48.628;8.924;2023-03-11T12:49:31;2.00;;;1.80;;
1140;SDS011;559;48.628;8.924;2023-03-11T12:51:59;1.60;;;1.40;;
1140;SDS011;559;48.628;8.924;2023-03-11T12:54:28;2.55;;;0.88;;
1140;SDS011;559;48.628;8.924;2023-03-11T12:56:56;2.25;;;1.83;;
1140;SDS011;559;48.628;8.924;2023-03-11T13:02:28;2.88;;;1.25;;
1140;SDS011;559;48.628;8.924;2023-03-11T13:05:09;3.58;;;1.40;;
1140;SDS011;559;48.628;8.924;2023-03-11T13:07:41;3.33;;;1.30;;
1140;SDS011;559;48.628;8.924;2023-03-11T13:10:16;1.58;;;1.25;;
1140;SDS011;559;48.628;8.924;2023-03-11T13:12:59;1.50;;;1.40;;
1140;SDS011;559;48.628;8.924;2023-03-11T13:15:33;2.65;;;1.40;;
1140;SDS011;559;48.628;8.924;2023-03-11T13:18:01;1.23;;;1.13;;
1140;SDS011;559;48.628;8.924;2023-03-11T13:20:45;2.00;;;1.45;;
1140;SDS011;559;48.628;8.924;2023-03-11T13:23:33;3.28;;;1.40;;
1140;SDS011;559;48.628;8.924;2023-03-11T13:26:03;7.70;;;1.45;;
1140;SDS011;559;48.628;8.924;2023-03-11T13:28:42;2.50;;;1.75;;
1140;SDS011;559;48.628;8.924;2023-03-11T13:31:38;4.35;;;1.42;;
1140;SDS011;559;48.628;8.924;2023-03-11T13:34:15;2.25;;;1.13;;
1140;SDS011;559;48.628;8.924;2023-03-11T13:36:50;1.45;;;1.05;;
1140;SDS011;559;48.628;8.924;2023-03-11T13:39:26;1.20;;;1.10;;
1140;SDS011;559;48.628;8.924;2023-03-11T13:42:01;2.00;;;1.67;;
1140;SDS011;559;48.628;8.924;2023-03-11T13:44:30;1.13;;;0.80;;
1140;SDS011;559;48.628;8.924;2023-03-11T13:47:00;2.17;;;1.40;;
1140;SDS011;559;48.628;8.924;2023-03-11T13:49:31;1.38;;;1.27;;
1140;SDS011;559;48.628;8.924;2023-03-11T13:52:02;1.70;;;1.00;;
1140;SDS011;559;48.628;8.924;2023-03-11T13:57:22;1.20;;;0.98;;
1140;SDS011;559;48.628;8.924;2023-03-11T13:59:51;1.10;;;0.70;;
1140;SDS011;559;48.628;8.924;2023-03-11T14:02:19;1.48;;;1.13;;
1140;SDS011;559;48.628;8.924;2023-03-11T14:04:51;2.20;;;1.02;;
1140;SDS011;559;48.628;8.924;2023-03-11T14:07:25;1.00;;;0.82;;
1140;SDS011;559;48.628;8.924;2023-03-11T14:13:13;1.52;;;1.42;;
1140;SDS011;559;48.628;8.924;2023-03-11T14:15:43;14.80;;;10.40;;
1140;SDS011;559;48.628;8.924;2023-03-11T14:18:33;16.35;;;12.43;;
1140;SDS011;559;48.628;8.924;2023-03-11T14:21:01;6.30;;;5.47;;
1140;SDS011;559;48.628;8.924;2023-03-11T14:23:34;2.72;;;1.40;;
1140;SDS011;559;48.628;8.924;2023-03-11T14:26:05;1.70;;;1.00;;
1140;SDS011;559;48.628;8.924;2023-03-11T14:28:35;2.13;;;1.20;;
1140;SDS011;559;48.628;8.924;2023-03-11T14:31:04;1.92;;;1.05;;
1140;SDS011;559;48.628;8.924;2023-03-11T14:33:31;1.52;;;1.42;;
1140;SDS011;559;48.628;8.924;2023-03-11T14:35:58;2.28;;;1.95;;
1140;SDS011;559;48.628;8.924;2023-03-11T14:38:31;1.40;;;0.90;;
1140;SDS011;559;48.628;8.924;2023-03-11T14:41:03;1.70;;;0.90;;
1140;SDS011;559;48.628;8.924;2023-03-11T14:43:31;4.07;;;2.63;;
1140;SDS011;559;48.628;8.924;2023-03-11T14:45:59;2.38;;;1.13;;
1140;SDS011;559;48.628;8.924;2023-03-11T14:48:26;1.10;;;0.80;;
1140;SDS011;559;48.628;8.924;2023-03-11T14:50:54;1.83;;;0.80;;
1140;SDS011;559;48.628;8.924;2023-03-11T14:53:23;4.43;;;0.90;;
1140;SDS011;559;48.628;8.924;2023-03-11T14:55:50;20.45;;;2.75;;
1140;SDS011;559;48.628;8.924;2023-03-11T14:58:22;1.25;;;1.00;;
1140;SDS011;559;48.628;8.924;2023-03-11T15:00:54;1.13;;;1.02;;
1140;SDS011;559;48.628;8.924;2023-03-11T15:03:23;1.10;;;0.95;;
1140;SDS011;559;48.628;8.924;2023-03-11T15:05:53;1.38;;;0.80;;
1140;SDS011;559;48.628;8.924;2023-03-11T15:08:21;2.30;;;1.88;;
1140;SDS011;559;48.628;8.924;2023-03-11T15:11:03;1.73;;;1.20;;
1140;SDS011;559;48.628;8.924;2023-03-11T15:13:46;5.72;;;3.47;;
1140;SDS011;559;48.628;8.924;2023-03-11T15:16:28;1.25;;;1.10;;
1140;SDS011;559;48.628;8.924;2023-03-11T15:18:55;1.70;;;0.80;;
1140;SDS011;559;48.628;8.924;2023-03-11T15:21:24;3.22;;;2.00;;
1140;SDS011;559;48.628;8.924;2023-03-11T15:23:51;1.63;;;1.10;;
1140;SDS011;559;48.628;8.924;2023-03-11T15:26:21;3.78;;;1.00;;
1140;SDS011;559;48.628;8.924;2023-03-11T15:28:53;2.10;;;1.00;;
1140;SDS011;559;48.628;8.924;2023-03-11T15:34:09;1.25;;;0.93;;
1140;SDS011;559;48.628;8.924;2023-03-11T15:36:53;1.70;;;1.60;;
1140;SDS011;559;48.628;8.924;2023-03-11T15:39:24;1.65;;;1.13;;
1140;SDS011;559;48.628;8.924;2023-03-11T15:41:56;2.35;;;0.90;;
1140;SDS011;559;48.628;8.924;2023-03-11T15:44:27;1.92;;;1.13;;
1140;SDS011;559;48.628;8.924;2023-03-11T15:46:55;3.17;;;1.70;;
1140;SDS011;559;48.628;8.924;2023-03-11T15:49:23;1.95;;;1.30;;